createdAt,value
2019-05-22T00:00:30.722Z,25.27
2019-05-22T00:03:01.869Z,22.83
2019-05-22T00:05:37.284Z,29.27
2019-05-22T00:08:08.867Z,26.67
2019-05-22T00:10:39.807Z,26.30
2019-05-22T00:13:10.546Z,25.80
2019-05-22T00:15:39.924Z,28.07
2019-05-22T00:18:10.858Z,26.40
2019-05-22T00:20:41.722Z,23.80
2019-05-22T00:23:14.920Z,17.10
2019-05-22T00:25:47.293Z,24.77
2019-05-22T00:28:18.229Z,27.70
2019-05-22T00:30:49.200Z,28.87
2019-05-22T00:33:18.648Z,28.37
2019-05-22T00:35:47.744Z,29.00
2019-05-22T00:38:18.306Z,28.37
2019-05-22T00:40:51.908Z,31.33
2019-05-22T00:43:34.001Z,28.00
2019-05-22T00:46:08.533Z,18.37
2019-05-22T00:48:38.858Z,25.93
2019-05-22T00:51:29.462Z,22.43
2019-05-22T00:54:03.672Z,29.00
2019-05-22T00:56:37.279Z,29.63
2019-05-22T00:59:21.120Z,26.27
2019-05-22T01:01:59.237Z,27.07
2019-05-22T01:04:32.378Z,28.23
2019-05-22T01:07:04.609Z,26.77
2019-05-22T01:09:39.360Z,31.40
2019-05-22T01:12:12.736Z,23.73
2019-05-22T01:14:43.230Z,22.17
2019-05-22T01:17:14.590Z,24.83
2019-05-22T01:19:46.953Z,26.53
2019-05-22T01:22:18.222Z,28.00
2019-05-22T01:24:51.508Z,24.90
2019-05-22T01:27:21.121Z,20.13
2019-05-22T01:29:50.629Z,24.00
2019-05-22T01:32:21.581Z,22.53
2019-05-22T01:34:51.279Z,26.20
2019-05-22T01:37:20.438Z,21.97
2019-05-22T01:39:53.828Z,23.03
2019-05-22T01:42:27.180Z,28.57
2019-05-22T01:45:05.909Z,26.43
2019-05-22T01:47:49.444Z,20.47
2019-05-22T01:50:41.979Z,25.07
2019-05-22T01:53:12.374Z,23.80
2019-05-22T01:55:43.772Z,26.20
2019-05-22T01:58:13.365Z,24.07
2019-05-22T02:00:42.498Z,27.23
2019-05-22T02:03:12.169Z,25.33
2019-05-22T02:05:42.702Z,26.87
2019-05-22T02:08:11.983Z,25.40
2019-05-22T02:10:42.806Z,24.70
2019-05-22T02:13:14.296Z,18.90
2019-05-22T02:15:46.434Z,23.67
2019-05-22T02:18:17.985Z,19.77
2019-05-22T02:20:48.532Z,23.03
2019-05-22T02:23:18.052Z,24.37
2019-05-22T02:25:47.207Z,23.97
2019-05-22T02:28:16.961Z,26.17
2019-05-22T02:30:47.769Z,22.10
2019-05-22T02:33:19.700Z,25.30
2019-05-22T02:35:49.553Z,19.60
2019-05-22T02:38:18.989Z,21.50
2019-05-22T02:40:49.690Z,22.53
2019-05-22T02:43:19.601Z,19.23
2019-05-22T02:45:49.837Z,19.00
2019-05-22T02:48:18.800Z,25.73
2019-05-22T02:50:48.638Z,19.53
2019-05-22T02:53:17.735Z,22.60
2019-05-22T02:55:47.710Z,26.27
2019-05-22T02:58:18.497Z,27.20
2019-05-22T03:01:00.334Z,25.80
2019-05-22T03:03:31.047Z,26.57
2019-05-22T03:06:03.996Z,29.07
2019-05-22T03:08:58.705Z,27.57
2019-05-22T03:11:34.854Z,28.90
2019-05-22T03:14:05.003Z,27.33
2019-05-22T03:16:45.193Z,27.40
2019-05-22T03:19:18.667Z,29.47
2019-05-22T03:21:47.530Z,20.37
2019-05-22T03:24:16.960Z,27.17
2019-05-22T03:26:48.996Z,28.97
2019-05-22T03:29:20.146Z,27.20
2019-05-22T03:31:49.423Z,22.50
2019-05-22T03:34:18.562Z,15.80
2019-05-22T03:36:47.876Z,19.03
2019-05-22T03:39:19.810Z,27.77
2019-05-22T03:41:49.454Z,25.13
2019-05-22T03:44:19.764Z,24.80
2019-05-22T03:46:49.799Z,21.93
2019-05-22T03:49:29.974Z,24.97
2019-05-22T03:51:52.633Z,25.83
2019-05-22T03:54:22.092Z,23.77
2019-05-22T03:56:53.143Z,26.80
2019-05-22T03:59:22.098Z,23.47
2019-05-22T04:01:52.746Z,23.07
2019-05-22T04:04:36.832Z,19.63
2019-05-22T04:07:08.370Z,20.47
2019-05-22T04:09:40.984Z,23.63
2019-05-22T04:12:10.863Z,22.97
2019-05-22T04:14:40.691Z,21.67
2019-05-22T04:17:13.689Z,20.73
2019-05-22T04:19:50.517Z,19.87
2019-05-22T04:22:16.337Z,19.63
2019-05-22T04:24:45.680Z,22.07
2019-05-22T04:27:15.833Z,18.40
2019-05-22T04:29:45.230Z,20.77
2019-05-22T04:32:16.174Z,23.60
2019-05-22T04:34:46.962Z,18.40
2019-05-22T04:37:16.464Z,21.73
2019-05-22T04:39:46.462Z,23.67
2019-05-22T04:42:16.480Z,16.77
2019-05-22T04:45:10.266Z,23.27
2019-05-22T04:47:40.374Z,21.30
2019-05-22T04:50:10.510Z,21.43
2019-05-22T04:52:39.694Z,23.20
2019-05-22T04:55:10.827Z,20.87
2019-05-22T04:57:41.275Z,19.70
2019-05-22T05:00:12.292Z,21.33
2019-05-22T05:02:43.193Z,17.10
2019-05-22T05:05:13.834Z,19.97
2019-05-22T05:07:44.112Z,22.33
2019-05-22T05:10:13.308Z,21.50
2019-05-22T05:12:42.514Z,20.73
2019-05-22T05:15:12.132Z,23.50
2019-05-22T05:17:40.910Z,23.63
2019-05-22T05:20:21.971Z,19.23
2019-05-22T05:22:43.818Z,21.47
2019-05-22T05:25:14.843Z,23.53
2019-05-22T05:27:45.086Z,15.23
2019-05-22T05:30:16.273Z,23.60
2019-05-22T05:32:45.804Z,15.77
2019-05-22T05:35:16.988Z,20.10
2019-05-22T05:37:47.018Z,17.87
2019-05-22T05:40:44.059Z,21.03
2019-05-22T05:43:15.388Z,21.60
2019-05-22T05:45:47.061Z,21.70
2019-05-22T05:48:21.396Z,20.20
2019-05-22T05:51:08.611Z,22.07
2019-05-22T05:53:55.215Z,16.43
2019-05-22T05:56:28.221Z,21.33
2019-05-22T05:58:57.897Z,23.37
2019-05-22T06:01:28.319Z,16.33
2019-05-22T06:03:58.828Z,22.03
2019-05-22T06:06:34.845Z,22.57
2019-05-22T06:09:07.424Z,21.77
2019-05-22T06:11:52.420Z,20.10
2019-05-22T06:14:33.957Z,16.60
2019-05-22T06:17:25.158Z,19.50
2019-05-22T06:19:59.720Z,18.50
2019-05-22T06:22:29.109Z,19.10
2019-05-22T06:25:01.329Z,21.27
2019-05-22T06:27:43.068Z,14.13
2019-05-22T06:30:16.722Z,20.13
2019-05-22T06:33:07.780Z,20.87
2019-05-22T06:35:38.841Z,19.70
2019-05-22T06:38:39.175Z,19.60
2019-05-22T06:41:08.858Z,19.13
2019-05-22T06:43:41.877Z,17.00
2019-05-22T06:46:12.791Z,16.70
2019-05-22T06:48:42.452Z,18.97
2019-05-22T06:51:19.423Z,21.77
2019-05-22T06:53:41.951Z,22.50
2019-05-22T06:56:11.809Z,18.60
2019-05-22T06:58:40.536Z,22.37
2019-05-22T07:01:09.315Z,21.30
2019-05-22T07:03:38.342Z,22.00
2019-05-22T07:06:07.229Z,21.50
2019-05-22T07:08:36.051Z,21.53
2019-05-22T07:11:04.832Z,17.53
2019-05-22T07:13:34.242Z,17.53
2019-05-22T07:16:03.639Z,18.87
2019-05-22T07:18:33.149Z,17.07
2019-05-22T07:21:03.663Z,21.33
2019-05-22T07:23:34.923Z,18.80
2019-05-22T07:26:04.324Z,18.93
2019-05-22T07:28:33.347Z,17.93
2019-05-22T07:31:02.980Z,17.63
2019-05-22T07:33:32.784Z,14.33
2019-05-22T07:36:13.553Z,13.83
2019-05-22T07:38:33.576Z,16.17
2019-05-22T07:41:03.812Z,13.50
2019-05-22T07:43:32.640Z,16.63
2019-05-22T07:46:01.866Z,14.87
2019-05-22T07:48:31.906Z,18.37
2019-05-22T07:51:02.372Z,14.47
2019-05-22T07:53:31.329Z,17.90
2019-05-22T07:56:04.277Z,16.77
2019-05-22T07:58:34.737Z,16.20
2019-05-22T08:01:04.945Z,16.87
2019-05-22T08:03:34.360Z,12.00
2019-05-22T08:06:05.603Z,12.27
2019-05-22T08:08:36.142Z,15.47
2019-05-22T08:11:05.793Z,15.87
2019-05-22T08:13:35.510Z,15.40
2019-05-22T08:16:04.651Z,16.87
2019-05-22T08:18:35.277Z,14.43
2019-05-22T08:21:04.737Z,16.97
2019-05-22T08:23:34.395Z,15.70
2019-05-22T08:26:03.368Z,16.67
2019-05-22T08:28:33.292Z,14.60
2019-05-22T08:31:05.715Z,15.07
2019-05-22T08:33:36.717Z,10.77
2019-05-22T08:36:06.857Z,15.17
2019-05-22T08:38:36.010Z,13.70
2019-05-22T08:41:08.854Z,10.73
2019-05-22T08:44:03.206Z,10.83
2019-05-22T08:46:11.107Z,10.00
2019-05-22T08:48:48.190Z,10.53
2019-05-22T08:51:14.245Z,7.40
2019-05-22T08:53:48.450Z,10.37
2019-05-22T08:56:14.497Z,8.33
2019-05-22T08:58:45.015Z,12.23
2019-05-22T09:01:14.330Z,10.47
2019-05-22T09:03:43.686Z,7.93
2019-05-22T09:06:12.813Z,13.40
2019-05-22T09:08:41.854Z,12.37
2019-05-22T09:11:11.476Z,12.93
2019-05-22T09:13:40.355Z,16.13
2019-05-22T09:16:10.338Z,15.07
2019-05-22T09:18:39.135Z,15.40
2019-05-22T09:21:07.977Z,12.93
2019-05-22T09:23:37.143Z,14.53
2019-05-22T09:26:06.724Z,15.03
2019-05-22T09:28:35.524Z,15.10
2019-05-22T09:31:05.629Z,15.20
2019-05-22T09:33:35.845Z,14.50
2019-05-22T09:36:05.114Z,14.93
2019-05-22T09:38:34.119Z,14.43
2019-05-22T09:41:05.303Z,12.50
2019-05-22T09:43:34.446Z,13.87
2019-05-22T09:46:03.712Z,14.07
2019-05-22T09:48:34.367Z,12.13
2019-05-22T09:51:03.425Z,13.83
2019-05-22T09:53:33.175Z,12.60
2019-05-22T09:56:02.027Z,14.13
2019-05-22T09:58:31.384Z,15.33
2019-05-22T10:01:00.836Z,14.97
2019-05-22T10:03:32.706Z,12.77
2019-05-22T10:06:02.050Z,12.83
2019-05-22T10:08:31.460Z,14.10
2019-05-22T10:11:00.441Z,14.20
2019-05-22T10:13:29.597Z,14.70
2019-05-22T10:15:58.689Z,13.60
2019-05-22T10:18:27.591Z,11.87
2019-05-22T10:20:57.391Z,10.57
2019-05-22T10:23:26.964Z,12.80
2019-05-22T10:25:56.101Z,12.60
2019-05-22T10:28:25.177Z,11.50
2019-05-22T10:30:56.174Z,11.30
2019-05-22T10:33:25.526Z,7.77
2019-05-22T10:35:54.537Z,9.60
2019-05-22T10:38:23.345Z,11.90
2019-05-22T10:40:52.384Z,10.33
2019-05-22T10:43:21.392Z,10.57
2019-05-22T10:45:50.386Z,9.87
2019-05-22T10:48:19.180Z,8.13
2019-05-22T10:50:47.961Z,12.63
2019-05-22T10:53:32.466Z,10.33
2019-05-22T10:55:48.096Z,11.53
2019-05-22T10:58:16.929Z,9.00
2019-05-22T11:00:46.060Z,7.87
2019-05-22T11:03:15.895Z,6.20
2019-05-22T11:05:45.720Z,6.73
2019-05-22T11:08:14.864Z,7.33
2019-05-22T11:10:45.325Z,7.03
2019-05-22T11:13:14.883Z,10.63
2019-05-22T11:15:44.138Z,10.73
2019-05-22T11:18:13.074Z,9.67
2019-05-22T11:20:42.558Z,8.37
2019-05-22T11:23:12.301Z,8.73
2019-05-22T11:25:41.182Z,9.87
2019-05-22T11:28:10.048Z,11.93
2019-05-22T11:30:39.448Z,9.97
2019-05-22T11:33:09.579Z,9.70
2019-05-22T11:35:39.220Z,6.40
2019-05-22T11:38:09.108Z,11.67
2019-05-22T11:40:38.398Z,9.50
2019-05-22T11:43:07.779Z,6.80
2019-05-22T11:45:37.238Z,10.47
2019-05-22T11:48:06.947Z,8.37
2019-05-22T11:50:35.737Z,8.80
2019-05-22T11:53:04.907Z,9.33
2019-05-22T11:55:45.184Z,9.57
2019-05-22T11:58:04.729Z,9.73
2019-05-22T12:00:33.592Z,9.43
2019-05-22T12:03:03.480Z,9.67
2019-05-22T12:05:33.066Z,5.83
2019-05-22T12:08:02.966Z,7.90
2019-05-22T12:10:31.964Z,10.03
2019-05-22T12:13:01.066Z,10.23
2019-05-22T12:15:31.105Z,9.33
2019-05-22T12:18:00.640Z,10.27
2019-05-22T12:20:31.011Z,4.70
2019-05-22T12:23:00.551Z,10.23
2019-05-22T12:25:30.088Z,9.53
2019-05-22T12:27:59.251Z,9.30
2019-05-22T12:30:28.525Z,9.50
2019-05-22T12:32:59.571Z,9.27
2019-05-22T12:35:31.000Z,7.57
2019-05-22T12:38:00.666Z,7.13
2019-05-22T12:40:33.799Z,7.33
2019-05-22T12:43:03.558Z,6.57
2019-05-22T12:45:33.577Z,6.33
2019-05-22T12:48:03.956Z,5.80
2019-05-22T12:50:33.909Z,6.87
2019-05-22T12:53:06.420Z,6.53
2019-05-22T12:55:35.539Z,6.37
2019-05-22T12:58:05.982Z,6.20
2019-05-22T13:00:35.651Z,6.83
2019-05-22T13:03:06.634Z,6.87
2019-05-22T13:05:36.451Z,5.27
2019-05-22T13:08:05.773Z,5.90
2019-05-22T13:10:36.249Z,5.50
2019-05-22T13:13:05.522Z,6.13
2019-05-22T13:15:35.829Z,5.30
2019-05-22T13:18:07.364Z,5.80
2019-05-22T13:20:43.199Z,4.80
2019-05-22T13:23:10.043Z,5.07
2019-05-22T13:25:39.834Z,5.70
2019-05-22T13:28:12.555Z,4.60
2019-05-22T13:30:43.026Z,5.70
2019-05-22T13:33:15.476Z,5.67
2019-05-22T13:35:46.160Z,5.00
2019-05-22T13:38:15.651Z,6.17
2019-05-22T13:40:44.834Z,5.13
2019-05-22T13:43:13.795Z,5.77
2019-05-22T13:45:43.005Z,6.93
2019-05-22T13:48:12.846Z,6.33
2019-05-22T13:50:41.738Z,6.00
2019-05-22T13:53:13.022Z,5.10
2019-05-22T13:55:41.967Z,4.80
2019-05-22T13:58:11.993Z,5.90
2019-05-22T14:00:44.274Z,4.87
2019-05-22T14:03:14.954Z,5.20
2019-05-22T14:05:46.010Z,5.00
2019-05-22T14:08:15.514Z,4.53
2019-05-22T14:10:45.019Z,4.20
2019-05-22T14:13:16.290Z,4.70
2019-05-22T14:15:52.515Z,4.70
2019-05-22T14:18:17.070Z,4.13
2019-05-22T14:20:46.772Z,4.00
2019-05-22T14:23:16.579Z,4.60
2019-05-22T14:25:47.420Z,3.73
2019-05-22T14:28:16.702Z,4.17
2019-05-22T14:30:46.127Z,4.20
2019-05-22T14:33:15.641Z,3.80
2019-05-22T14:35:49.031Z,3.90
2019-05-22T14:38:16.738Z,3.80
2019-05-22T14:40:45.621Z,3.57
2019-05-22T14:43:14.686Z,4.10
2019-05-22T14:45:44.137Z,2.80
2019-05-22T14:48:14.039Z,4.73
2019-05-22T14:50:45.075Z,4.23
2019-05-22T14:53:14.727Z,4.37
2019-05-22T14:55:44.893Z,2.97
2019-05-22T14:58:15.369Z,3.37
2019-05-22T15:00:44.610Z,3.93
2019-05-22T15:03:13.812Z,3.83
2019-05-22T15:05:44.892Z,3.73
2019-05-22T15:08:14.258Z,3.93
2019-05-22T15:10:43.955Z,4.07
2019-05-22T15:13:13.681Z,4.30
2019-05-22T15:15:42.966Z,4.30
2019-05-22T15:18:12.705Z,3.90
2019-05-22T15:20:47.007Z,4.60
2019-05-22T15:23:16.718Z,3.93
2019-05-22T15:25:45.818Z,3.97
2019-05-22T15:28:15.193Z,4.03
2019-05-22T15:30:44.497Z,4.30
2019-05-22T15:33:13.602Z,4.87
2019-05-22T15:35:43.336Z,5.10
2019-05-22T15:38:12.845Z,4.77
2019-05-22T15:40:41.734Z,4.60
2019-05-22T15:43:12.260Z,3.93
2019-05-22T15:45:42.616Z,4.87
2019-05-22T15:48:16.841Z,4.73
2019-05-22T15:50:48.339Z,3.07
2019-05-22T15:53:17.756Z,5.00
2019-05-22T15:55:48.584Z,4.87
2019-05-22T15:58:19.070Z,5.03
2019-05-22T16:00:48.641Z,3.83
2019-05-22T16:03:21.508Z,5.20
2019-05-22T16:05:52.974Z,4.97
2019-05-22T16:08:22.609Z,4.97
2019-05-22T16:10:52.582Z,4.87
2019-05-22T16:13:23.239Z,5.20
2019-05-22T16:15:54.733Z,5.57
2019-05-22T16:18:28.605Z,5.73
2019-05-22T16:21:03.802Z,5.30
2019-05-22T16:23:35.733Z,5.00
2019-05-22T16:26:06.936Z,3.77
2019-05-22T16:28:39.013Z,4.20
2019-05-22T16:31:10.582Z,4.50
2019-05-22T16:33:41.803Z,4.43
2019-05-22T16:36:11.723Z,4.80
2019-05-22T16:38:41.318Z,4.07
2019-05-22T16:41:10.869Z,3.70
2019-05-22T16:43:49.558Z,4.10
2019-05-22T16:46:17.124Z,3.40
2019-05-22T16:48:49.072Z,3.63
2019-05-22T16:51:18.613Z,3.77
2019-05-22T16:53:50.456Z,4.30
2019-05-22T16:56:21.504Z,3.43
2019-05-22T16:58:51.825Z,4.37
2019-05-22T17:01:22.337Z,5.17
2019-05-22T17:03:53.302Z,4.30
2019-05-22T17:06:23.155Z,5.23
2019-05-22T17:08:52.183Z,4.73
2019-05-22T17:11:21.983Z,4.60
2019-05-22T17:13:51.538Z,5.20
2019-05-22T17:16:20.636Z,5.10
2019-05-22T17:18:49.926Z,4.93
2019-05-22T17:21:19.204Z,5.27
2019-05-22T17:23:50.006Z,5.27
2019-05-22T17:26:19.288Z,6.83
2019-05-22T17:28:49.133Z,5.40
2019-05-22T17:31:19.207Z,5.77
2019-05-22T17:33:48.470Z,4.43
2019-05-22T17:36:19.922Z,5.47
2019-05-22T17:38:49.220Z,4.23
2019-05-22T17:41:18.963Z,5.67
2019-05-22T17:43:48.909Z,5.83
2019-05-22T17:46:18.898Z,5.80
2019-05-22T17:48:49.233Z,6.03
2019-05-22T17:51:20.059Z,6.40
2019-05-22T17:53:49.477Z,6.87
2019-05-22T17:56:19.718Z,5.77
2019-05-22T17:58:48.787Z,5.10
2019-05-22T18:01:19.964Z,4.00
2019-05-22T18:03:49.233Z,4.13
2019-05-22T18:06:18.641Z,3.87
2019-05-22T18:08:48.134Z,4.50
2019-05-22T18:11:17.135Z,4.50
2019-05-22T18:13:54.834Z,4.43
2019-05-22T18:16:27.338Z,4.40
2019-05-22T18:18:56.916Z,4.93
2019-05-22T18:21:25.796Z,4.63
2019-05-22T18:23:54.911Z,4.60
2019-05-22T18:26:24.121Z,4.63
2019-05-22T18:28:53.616Z,4.70
2019-05-22T18:31:22.816Z,4.30
2019-05-22T18:33:51.933Z,4.73
2019-05-22T18:36:21.415Z,4.80
2019-05-22T18:38:50.530Z,4.87
2019-05-22T18:41:19.609Z,4.50
2019-05-22T18:43:49.117Z,4.83
2019-05-22T18:46:18.373Z,4.80
2019-05-22T18:48:48.316Z,4.77
2019-05-22T18:51:17.954Z,5.30
2019-05-22T18:53:47.350Z,5.30
2019-05-22T18:56:16.337Z,4.80
2019-05-22T18:58:47.176Z,5.13
2019-05-22T19:01:16.800Z,5.03
2019-05-22T19:03:46.398Z,5.97
2019-05-22T19:06:28.622Z,4.97
2019-05-22T19:08:47.660Z,5.13
2019-05-22T19:11:16.758Z,5.23
2019-05-22T19:13:45.802Z,5.93
2019-05-22T19:16:15.269Z,5.77
2019-05-22T19:18:44.457Z,6.37
2019-05-22T19:21:13.874Z,6.20
2019-05-22T19:23:42.860Z,5.10
2019-05-22T19:26:11.952Z,5.67
2019-05-22T19:28:44.042Z,6.30
2019-05-22T19:31:12.942Z,5.27
2019-05-22T19:33:42.301Z,5.40
2019-05-22T19:36:11.385Z,4.97
2019-05-22T19:38:40.820Z,4.93
2019-05-22T19:41:10.854Z,5.20
2019-05-22T19:43:40.462Z,5.80
2019-05-22T19:46:09.888Z,6.60
2019-05-22T19:48:39.449Z,5.37
2019-05-22T19:51:08.762Z,5.23
2019-05-22T19:53:37.755Z,5.50
2019-05-22T19:56:07.791Z,5.87
2019-05-22T19:58:36.708Z,6.10
2019-05-22T20:01:06.073Z,6.90
2019-05-22T20:03:35.002Z,6.43
2019-05-22T20:06:04.063Z,6.73
2019-05-22T20:08:36.258Z,6.53
2019-05-22T20:11:04.998Z,6.10
2019-05-22T20:13:34.635Z,7.07
2019-05-22T20:16:04.031Z,6.57
2019-05-22T20:18:33.937Z,7.07
2019-05-22T20:21:03.046Z,7.53
2019-05-22T20:23:36.227Z,6.80
2019-05-22T20:26:03.381Z,6.57
2019-05-22T20:28:32.484Z,6.87
2019-05-22T20:31:02.934Z,6.60
2019-05-22T20:33:34.051Z,7.40
2019-05-22T20:36:03.335Z,6.77
2019-05-22T20:38:32.287Z,7.50
2019-05-22T20:41:01.579Z,6.53
2019-05-22T20:43:32.666Z,6.60
2019-05-22T20:46:04.251Z,6.57
2019-05-22T20:48:33.341Z,6.77
2019-05-22T20:51:04.286Z,6.27
2019-05-22T20:53:52.400Z,5.50
2019-05-22T20:56:08.012Z,6.10
2019-05-22T20:58:37.311Z,6.03
2019-05-22T21:01:07.724Z,6.33
2019-05-22T21:03:37.279Z,7.10
2019-05-22T21:06:09.311Z,6.80
2019-05-22T21:08:38.530Z,7.23
2019-05-22T21:11:09.144Z,7.00
2019-05-22T21:13:38.242Z,7.43
2019-05-22T21:16:07.831Z,7.53
2019-05-22T21:18:38.462Z,7.03
2019-05-22T21:21:08.589Z,6.63
2019-05-22T21:23:39.007Z,7.57
2019-05-22T21:26:08.719Z,7.47
2019-05-22T21:28:38.871Z,9.03
2019-05-22T21:31:08.460Z,8.27
2019-05-22T21:33:38.749Z,8.53
2019-05-22T21:36:11.017Z,7.17
2019-05-22T21:38:40.554Z,6.97
2019-05-22T21:41:10.288Z,7.73
2019-05-22T21:43:39.489Z,7.70
2019-05-22T21:46:08.864Z,8.77
2019-05-22T21:48:38.325Z,8.50
2019-05-22T21:51:08.004Z,8.17
2019-05-22T21:53:37.403Z,7.53
2019-05-22T21:56:06.537Z,7.57
2019-05-22T21:58:35.501Z,6.70
2019-05-22T22:01:09.852Z,5.90
2019-05-22T22:03:44.751Z,9.87
2019-05-22T22:06:14.820Z,6.60
2019-05-22T22:08:44.587Z,5.63
2019-05-22T22:11:14.464Z,5.87
2019-05-22T22:13:43.772Z,6.10
2019-05-22T22:16:13.074Z,5.27
2019-05-22T22:18:42.201Z,5.23
2019-05-22T22:21:12.778Z,4.90
2019-05-22T22:23:44.611Z,5.10
2019-05-22T22:26:25.374Z,4.37
2019-05-22T22:28:44.473Z,4.90
2019-05-22T22:31:15.567Z,5.60
2019-05-22T22:33:50.191Z,6.30
2019-05-22T22:36:20.216Z,6.40
2019-05-22T22:38:49.104Z,6.13
2019-05-22T22:41:19.063Z,6.53
2019-05-22T22:43:49.351Z,6.13
2019-05-22T22:46:37.906Z,6.87
2019-05-22T22:49:09.552Z,5.83
2019-05-22T22:51:39.046Z,6.60
2019-05-22T22:54:10.005Z,7.50
2019-05-22T22:56:39.510Z,7.50
2019-05-22T22:59:09.504Z,7.00
2019-05-22T23:01:41.902Z,7.20
2019-05-22T23:04:12.603Z,7.07
2019-05-22T23:06:43.372Z,6.13
2019-05-22T23:09:12.552Z,6.83
2019-05-22T23:11:42.021Z,7.13
2019-05-22T23:14:12.485Z,7.13
2019-05-22T23:16:41.982Z,7.33
2019-05-22T23:19:17.238Z,6.70
2019-05-22T23:21:46.536Z,6.30
2019-05-22T23:24:16.795Z,7.20
2019-05-22T23:26:47.165Z,6.73
2019-05-22T23:29:17.427Z,7.20
2019-05-22T23:31:49.940Z,8.17
2019-05-22T23:34:19.103Z,7.37
2019-05-22T23:36:48.576Z,7.67
2019-05-22T23:39:20.573Z,7.93
2019-05-22T23:41:50.769Z,8.23
2019-05-22T23:44:21.608Z,8.10
2019-05-22T23:46:51.436Z,8.03
2019-05-22T23:49:20.751Z,9.17
2019-05-22T23:51:50.642Z,8.53
2019-05-22T23:54:19.940Z,8.87
2019-05-22T23:56:51.760Z,8.23
2019-05-22T23:59:20.312Z,9.17
